Time;durP1;ratioP1;P1;durP2;ratioP2;P2;SDS_P1;SDS_P2;PMS_P1;PMS_P2;Temp;Humidity;BMP_temperature;BMP_pressure;BME280_temperature;BME280_humidity;BME280_pressure;Samples;Min_cycle;Max_cycle;Signal;HPM_P1;HPM_P2
2022/08/21 00:00:39;;;;;;;;;;;27.20;92.40;;;;;;5086580;28;19908;-60
2022/08/21 00:03:08;;;;;;;;;;;27.20;92.30;;;;;;5068855;28;19916;-57
2022/08/21 00:05:45;;;;;;;;;;;27.20;92.30;;;;;;5086856;28;20176;-55
2022/08/21 00:08:11;;;;;;;;;;;27.20;92.40;;;;;;5086567;28;19936;-56
2022/08/21 00:10:39;;;;;;;;;;;27.20;92.40;;;;;;5086850;28;19909;-54
2022/08/21 00:13:06;;;;;;;;;;;27.20;92.40;;;;;;5086437;28;19927;-54
2022/08/21 00:15:33;;;;;;;;;;;27.20;92.40;;;;;;5086634;28;19912;-59
2022/08/21 00:18:00;;;;;;;;;;;27.20;92.30;;;;;;5086706;28;20104;-56
2022/08/21 00:20:26;;;;;;;;;;;27.20;92.30;;;;;;5085605;28;19912;-53
2022/08/21 00:22:52;;;;;;;;;;;27.20;92.30;;;;;;5086200;28;19917;-56
2022/08/21 00:25:19;;;;;;;;;;;27.10;92.30;;;;;;5086599;28;20089;-54
2022/08/21 00:27:46;;;;;;;;;;;27.10;92.30;;;;;;5086336;28;19912;-53
2022/08/21 00:30:13;;;;;;;;;;;27.10;92.40;;;;;;5086149;28;19947;-53
2022/08/21 00:32:40;;;;;;;;;;;27.10;92.40;;;;;;5086524;28;20164;-54
2022/08/21 00:35:08;;;;;;;;;;;27.10;92.70;;;;;;5086222;28;20135;-55
2022/08/21 00:37:34;;;;;;;;;;;27.10;92.40;;;;;;5086018;28;19954;-55
2022/08/21 00:40:01;;;;;;;;;;;27.10;92.40;;;;;;5086390;28;19905;-55
2022/08/21 00:42:30;;;;;;;;;;;27.10;92.50;;;;;;5085992;28;19916;-54
2022/08/21 00:44:56;;;;;;;;;;;27.10;92.50;;;;;;5085852;28;19904;-58
2022/08/21 00:47:22;;;;;;;;;;;27.10;92.60;;;;;;5085935;28;19920;-53
2022/08/21 00:49:48;;;;;;;;;;;27.10;92.60;;;;;;5085840;28;19908;-53
2022/08/21 00:52:20;;;;;;;;;;;27.00;92.60;;;;;;5068122;28;19919;-55
2022/08/21 00:54:50;;;;;;;;;;;27.00;92.50;;;;;;5067507;28;19908;-53
2022/08/21 00:57:20;;;;;;;;;;;27.00;92.60;;;;;;5085884;28;19912;-53
2022/08/21 00:59:51;;;;;;;;;;;27.00;92.60;;;;;;5085569;28;19909;-56
2022/08/21 01:02:18;;;;;;;;;;;27.00;92.60;;;;;;5085811;28;20111;-54
2022/08/21 01:04:45;;;;;;;;;;;27.00;92.70;;;;;;5085390;28;19909;-50
2022/08/21 01:07:12;;;;;;;;;;;27.00;92.60;;;;;;5085060;28;20031;-55
2022/08/21 01:09:39;;;;;;;;;;;27.00;92.70;;;;;;5085080;28;19904;-56
2022/08/21 01:12:05;;;;;;;;;;;27.00;92.70;;;;;;5084839;28;20023;-54
2022/08/21 01:14:32;;;;;;;;;;;27.00;92.80;;;;;;5050964;28;19973;-53
2022/08/21 01:16:59;;;;;;;;;;;27.00;92.70;;;;;;5084478;28;19913;-52
2022/08/21 01:19:25;;;;;;;;;;;26.90;92.70;;;;;;5085329;28;19908;-55
2022/08/21 01:21:52;;;;;;;;;;;27.00;92.70;;;;;;5067378;28;19912;-54
2022/08/21 01:24:18;;;;;;;;;;;27.00;92.80;;;;;;5067484;28;19979;-54
2022/08/21 01:26:44;;;;;;;;;;;26.90;92.80;;;;;;5085126;28;20096;-54
2022/08/21 01:29:30;;;;;;;;;;;26.90;92.80;;;;;;5084795;28;20077;-53
2022/08/21 01:31:56;;;;;;;;;;;26.90;92.90;;;;;;5085270;28;20219;-52
2022/08/21 01:34:22;;;;;;;;;;;26.90;92.80;;;;;;5084510;28;19915;-51
2022/08/21 01:36:48;;;;;;;;;;;26.90;92.90;;;;;;5085302;28;19908;-61
2022/08/21 01:39:15;;;;;;;;;;;27.00;92.90;;;;;;5084799;28;19983;-56
2022/08/21 01:41:43;;;;;;;;;;;26.90;92.90;;;;;;5084964;28;19959;-53
2022/08/21 01:44:09;;;;;;;;;;;27.00;92.80;;;;;;5084523;28;19938;-52
2022/08/21 01:46:35;;;;;;;;;;;26.90;92.90;;;;;;5085032;28;19913;-53
2022/08/21 01:49:02;;;;;;;;;;;26.90;92.90;;;;;;5084560;28;19905;-57
2022/08/21 01:51:29;;;;;;;;;;;26.90;92.90;;;;;;5066539;28;19913;-54
2022/08/21 01:53:55;;;;;;;;;;;26.90;92.90;;;;;;5067092;28;19919;-53
2022/08/21 01:56:22;;;;;;;;;;;26.90;92.90;;;;;;5084725;28;19974;-54
2022/08/21 01:58:48;;;;;;;;;;;26.90;92.90;;;;;;5066756;28;19908;-54
2022/08/21 02:01:14;;;;;;;;;;;26.90;92.90;;;;;;5084522;28;19916;-57
2022/08/21 02:03:43;;;;;;;;;;;26.90;93.10;;;;;;5066709;28;20235;-53
2022/08/21 02:06:14;;;;;;;;;;;26.90;93.10;;;;;;5097005;28;19926;-56
2022/08/21 02:08:40;;;;;;;;;;;26.90;93.10;;;;;;5104485;28;19915;-53
2022/08/21 02:11:08;;;;;;;;;;;26.90;93.10;;;;;;5104684;28;19999;-51
2022/08/21 02:13:34;;;;;;;;;;;26.90;93.10;;;;;;5104752;28;19950;-56
2022/08/21 02:16:03;;;;;;;;;;;26.90;93.10;;;;;;5086341;28;19912;-56
2022/08/21 02:18:30;;;;;;;;;;;26.90;93.10;;;;;;5104489;28;19944;-52
2022/08/21 02:20:58;;;;;;;;;;;26.90;93.10;;;;;;5104830;28;19919;-54
2022/08/21 02:23:24;;;;;;;;;;;26.90;93.10;;;;;;5104349;28;19912;-59
2022/08/21 02:25:50;;;;;;;;;;;26.90;93.10;;;;;;5104788;28;20096;-54
2022/08/21 02:28:17;;;;;;;;;;;26.90;93.10;;;;;;5104501;28;19908;-54
2022/08/21 02:30:48;;;;;;;;;;;26.90;93.10;;;;;;5104763;28;20084;-53
2022/08/21 02:33:17;;;;;;;;;;;26.90;93.10;;;;;;5104413;28;20188;-54
2022/08/21 02:35:46;;;;;;;;;;;26.90;93.00;;;;;;5103433;28;19950;-55
2022/08/21 02:38:14;;;;;;;;;;;26.90;93.20;;;;;;5104457;28;20232;-53
2022/08/21 02:40:41;;;;;;;;;;;26.90;93.10;;;;;;5104460;28;20002;-53
2022/08/21 02:43:08;;;;;;;;;;;26.80;93.10;;;;;;5106635;28;19912;-52
2022/08/21 02:45:34;;;;;;;;;;;26.80;93.00;;;;;;5108802;28;19993;-56
2022/08/21 02:48:03;;;;;;;;;;;26.90;93.00;;;;;;5090392;28;20255;-57
2022/08/21 02:50:44;;;;;;;;;;;26.80;93.00;;;;;;5108797;28;19908;-57
2022/08/21 02:53:14;;;;;;;;;;;26.80;93.00;;;;;;5108099;28;19912;-53
2022/08/21 02:55:40;;;;;;;;;;;26.80;93.10;;;;;;5108504;28;19989;-54
2022/08/21 02:58:07;;;;;;;;;;;26.80;93.00;;;;;;5108377;28;19908;-52
2022/08/21 03:00:34;;;;;;;;;;;26.80;93.10;;;;;;5108191;28;20226;-56
2022/08/21 03:03:01;;;;;;;;;;;26.80;93.10;;;;;;5108206;28;19912;-52
2022/08/21 03:05:30;;;;;;;;;;;26.80;93.10;;;;;;5107941;28;19955;-56
2022/08/21 03:07:58;;;;;;;;;;;26.80;93.20;;;;;;5108027;28;19967;-53
2022/08/21 03:10:24;;;;;;;;;;;26.80;93.20;;;;;;5108274;28;20215;-54
2022/08/21 03:12:51;;;;;;;;;;;26.80;93.20;;;;;;5107984;28;19923;-54
2022/08/21 03:15:19;;;;;;;;;;;26.80;93.20;;;;;;5108022;28;19912;-57
2022/08/21 03:17:46;;;;;;;;;;;26.80;93.30;;;;;;5107953;28;19915;-55
2022/08/21 03:20:13;;;;;;;;;;;26.80;93.30;;;;;;5107615;28;19908;-54
2022/08/21 03:22:40;;;;;;;;;;;26.80;93.30;;;;;;5107715;28;19958;-54
2022/08/21 03:25:10;;;;;;;;;;;26.80;93.30;;;;;;5107734;28;19912;-54
2022/08/21 03:27:36;;;;;;;;;;;26.80;93.30;;;;;;5107943;28;19904;-55
2022/08/21 03:30:04;;;;;;;;;;;26.80;93.40;;;;;;5107581;28;19908;-53
2022/08/21 03:32:31;;;;;;;;;;;26.70;93.30;;;;;;5107798;28;20196;-53
2022/08/21 03:34:57;;;;;;;;;;;26.70;93.30;;;;;;5107154;28;19947;-52
2022/08/21 03:37:24;;;;;;;;;;;26.70;93.30;;;;;;5107335;28;19976;-49
2022/08/21 03:39:50;;;;;;;;;;;26.70;93.30;;;;;;5107568;28;19908;-54
2022/08/21 03:42:17;;;;;;;;;;;26.70;93.30;;;;;;5107510;28;19928;-51
2022/08/21 03:44:43;;;;;;;;;;;26.70;93.30;;;;;;5107157;28;19904;-55
2022/08/21 03:47:09;;;;;;;;;;;26.70;93.20;;;;;;5107361;28;19996;-54
2022/08/21 03:49:36;;;;;;;;;;;26.70;93.30;;;;;;5089071;28;19904;-51
2022/08/21 03:52:03;;;;;;;;;;;26.70;93.30;;;;;;5107836;28;19975;-54
2022/08/21 03:54:30;;;;;;;;;;;26.70;93.40;;;;;;5107139;28;19908;-53
2022/08/21 03:56:56;;;;;;;;;;;26.70;93.30;;;;;;5107716;28;20179;-55
2022/08/21 03:59:22;;;;;;;;;;;26.70;93.30;;;;;;5107346;28;19908;-53
2022/08/21 04:01:53;;;;;;;;;;;26.70;93.30;;;;;;5107341;28;19916;-54
2022/08/21 04:04:19;;;;;;;;;;;26.70;93.30;;;;;;5106683;28;19922;-56
2022/08/21 04:06:45;;;;;;;;;;;26.70;93.30;;;;;;5107478;28;19919;-53
2022/08/21 04:09:11;;;;;;;;;;;26.70;93.60;;;;;;5106962;28;19945;-53
2022/08/21 04:11:38;;;;;;;;;;;26.70;93.40;;;;;;5106888;28;19920;-53
2022/08/21 04:14:04;;;;;;;;;;;26.70;93.30;;;;;;5106866;28;19904;-54
2022/08/21 04:16:30;;;;;;;;;;;26.70;93.40;;;;;;5107101;28;19991;-58
2022/08/21 04:18:56;;;;;;;;;;;26.70;93.40;;;;;;5098518;28;19904;-52
2022/08/21 04:21:23;;;;;;;;;;;26.70;93.60;;;;;;5086765;28;19920;-54
2022/08/21 04:23:49;;;;;;;;;;;26.70;93.30;;;;;;5086301;28;19909;-56
2022/08/21 04:26:15;;;;;;;;;;;26.70;93.30;;;;;;5086686;28;19908;-53
2022/08/21 04:28:42;;;;;;;;;;;26.70;93.40;;;;;;5086198;28;20078;-53
2022/08/21 04:31:08;;;;;;;;;;;26.70;93.40;;;;;;5086093;28;20010;-54
2022/08/21 04:33:34;;;;;;;;;;;26.70;93.40;;;;;;5086343;28;20200;-55
2022/08/21 04:36:01;;;;;;;;;;;26.70;93.40;;;;;;5086227;28;19912;-53
2022/08/21 04:38:27;;;;;;;;;;;26.70;93.40;;;;;;5086185;28;20185;-54
2022/08/21 04:40:53;;;;;;;;;;;26.70;93.40;;;;;;5086271;28;19983;-54
2022/08/21 04:43:22;;;;;;;;;;;26.60;93.40;;;;;;5086005;28;19908;-53
2022/08/21 04:45:49;;;;;;;;;;;26.60;93.50;;;;;;5085899;28;19936;-52
2022/08/21 04:48:17;;;;;;;;;;;26.60;93.40;;;;;;5085985;28;19938;-58
2022/08/21 04:51:06;;;;;;;;;;;26.60;93.50;;;;;;5085439;28;19909;-53
2022/08/21 04:53:35;;;;;;;;;;;26.60;93.60;;;;;;5077853;28;19908;-56
2022/08/21 04:56:07;;;;;;;;;;;26.60;93.60;;;;;;5086091;28;20211;-55
2022/08/21 04:58:34;;;;;;;;;;;26.60;93.50;;;;;;5085566;28;19944;-60
2022/08/21 05:01:00;;;;;;;;;;;26.60;93.60;;;;;;5067827;28;20092;-52
2022/08/21 05:03:27;;;;;;;;;;;26.60;93.60;;;;;;5085120;28;20197;-54
2022/08/21 05:05:53;;;;;;;;;;;26.60;93.60;;;;;;5085174;28;19983;-55
2022/08/21 05:08:22;;;;;;;;;;;26.60;93.60;;;;;;5085481;28;19904;-53
2022/08/21 05:10:49;;;;;;;;;;;26.60;93.60;;;;;;5085201;28;19912;-54
2022/08/21 05:13:16;;;;;;;;;;;26.60;93.60;;;;;;5085235;28;19912;-52
2022/08/21 05:15:42;;;;;;;;;;;26.60;93.60;;;;;;5085500;28;20255;-54
2022/08/21 05:18:08;;;;;;;;;;;26.60;93.60;;;;;;5085214;28;19983;-54
2022/08/21 05:20:34;;;;;;;;;;;26.50;93.70;;;;;;5085082;28;19908;-54
2022/08/21 05:23:01;;;;;;;;;;;26.50;93.80;;;;;;5085286;28;19912;-52
2022/08/21 05:25:27;;;;;;;;;;;26.50;93.80;;;;;;5085192;28;19912;-54
2022/08/21 05:27:54;;;;;;;;;;;26.50;93.80;;;;;;5085092;28;19909;-55
2022/08/21 05:30:20;;;;;;;;;;;26.50;93.80;;;;;;5085298;28;19962;-54
2022/08/21 05:32:48;;;;;;;;;;;26.50;93.80;;;;;;5085196;28;19958;-54
2022/08/21 05:35:14;;;;;;;;;;;26.60;93.80;;;;;;5084221;28;19920;-53
2022/08/21 05:37:40;;;;;;;;;;;26.50;94.00;;;;;;5087957;28;19916;-54
2022/08/21 05:40:07;;;;;;;;;;;26.60;93.80;;;;;;5094619;28;19951;-52
2022/08/21 05:42:34;;;;;;;;;;;26.60;93.80;;;;;;5084105;28;19983;-55
2022/08/21 05:45:00;;;;;;;;;;;26.60;93.80;;;;;;5084054;28;20218;-57
2022/08/21 05:47:26;;;;;;;;;;;26.60;93.80;;;;;;5084866;28;20161;-55
2022/08/21 05:49:52;;;;;;;;;;;26.60;93.80;;;;;;5097667;28;19971;-56
2022/08/21 05:52:20;;;;;;;;;;;26.50;93.80;;;;;;5105119;28;19908;-58
2022/08/21 05:54:46;;;;;;;;;;;26.50;93.70;;;;;;5103908;28;19946;-56
2022/08/21 05:57:12;;;;;;;;;;;26.50;93.70;;;;;;5103366;28;19912;-54
2022/08/21 05:59:38;;;;;;;;;;;26.50;93.70;;;;;;5103428;28;19908;-58
2022/08/21 06:02:04;;;;;;;;;;;26.50;93.80;;;;;;5103729;28;19919;-56
2022/08/21 06:04:30;;;;;;;;;;;26.50;93.80;;;;;;5103364;28;20271;-55
2022/08/21 06:06:56;;;;;;;;;;;26.50;93.80;;;;;;5103406;28;19912;-58
2022/08/21 06:09:23;;;;;;;;;;;26.60;93.80;;;;;;5103915;28;19911;-55
2022/08/21 06:11:49;;;;;;;;;;;26.50;93.70;;;;;;5104844;28;20010;-54
2022/08/21 06:14:15;;;;;;;;;;;26.50;93.70;;;;;;5104736;28;19911;-55
2022/08/21 06:16:41;;;;;;;;;;;26.50;93.60;;;;;;5091101;28;19912;-52
2022/08/21 06:19:08;;;;;;;;;;;26.50;93.60;;;;;;5084480;28;19909;-53
2022/08/21 06:21:34;;;;;;;;;;;26.50;93.60;;;;;;5084468;28;19916;-55
2022/08/21 06:24:00;;;;;;;;;;;26.50;93.70;;;;;;5084320;28;19988;-55
2022/08/21 06:26:27;;;;;;;;;;;26.50;93.60;;;;;;5084641;28;19913;-53
2022/08/21 06:28:54;;;;;;;;;;;26.50;93.60;;;;;;5084183;28;19911;-55
2022/08/21 06:31:21;;;;;;;;;;;26.40;93.60;;;;;;5084680;28;19960;-54
2022/08/21 06:33:47;;;;;;;;;;;26.40;93.50;;;;;;5084430;28;19939;-52
2022/08/21 06:36:14;;;;;;;;;;;26.40;93.60;;;;;;5084652;28;19920;-53
2022/08/21 06:38:40;;;;;;;;;;;26.40;93.60;;;;;;5084661;28;19908;-56
2022/08/21 06:41:07;;;;;;;;;;;26.40;93.60;;;;;;5084533;28;19954;-56
2022/08/21 06:43:33;;;;;;;;;;;26.40;93.70;;;;;;5084239;28;19987;-53
2022/08/21 06:45:59;;;;;;;;;;;26.40;93.60;;;;;;5084377;28;19913;-54
2022/08/21 06:48:25;;;;;;;;;;;26.40;93.70;;;;;;5084265;28;19905;-56
2022/08/21 06:50:52;;;;;;;;;;;26.40;93.70;;;;;;5084585;28;19913;-56
2022/08/21 06:53:19;;;;;;;;;;;26.40;93.60;;;;;;5091406;28;19908;-55
2022/08/21 06:55:46;;;;;;;;;;;26.40;93.60;;;;;;5104653;28;19915;-53
2022/08/21 06:58:13;;;;;;;;;;;26.40;93.60;;;;;;5104379;28;19908;-54
2022/08/21 07:00:40;;;;;;;;;;;26.40;93.60;;;;;;5104091;28;19919;-52
2022/08/21 07:03:06;;;;;;;;;;;26.40;93.60;;;;;;5104265;28;19908;-54
2022/08/21 07:05:32;;;;;;;;;;;26.40;93.60;;;;;;5104624;28;19912;-54
2022/08/21 07:07:58;;;;;;;;;;;26.40;93.60;;;;;;5104065;28;20188;-56
2022/08/21 07:10:26;;;;;;;;;;;26.40;93.60;;;;;;5104418;28;19912;-54
2022/08/21 07:12:54;;;;;;;;;;;26.30;93.60;;;;;;5104278;28;19920;-56
2022/08/21 07:15:20;;;;;;;;;;;26.30;93.60;;;;;;5104391;28;20133;-53
2022/08/21 07:17:46;;;;;;;;;;;26.40;93.70;;;;;;5104129;28;19908;-53
2022/08/21 07:20:13;;;;;;;;;;;26.30;93.70;;;;;;5104441;28;20255;-54
2022/08/21 07:22:40;;;;;;;;;;;26.30;93.70;;;;;;5103752;28;19943;-55
2022/08/21 07:25:06;;;;;;;;;;;26.30;93.70;;;;;;5104323;28;19908;-53
2022/08/21 07:27:33;;;;;;;;;;;26.30;93.80;;;;;;5104355;28;20165;-57
2022/08/21 07:29:59;;;;;;;;;;;26.30;93.80;;;;;;5107893;28;19908;-55
2022/08/21 07:32:26;;;;;;;;;;;26.30;93.80;;;;;;5108247;28;19916;-56
2022/08/21 07:34:52;;;;;;;;;;;26.30;93.80;;;;;;5108045;28;19908;-58
2022/08/21 07:37:18;;;;;;;;;;;26.30;93.80;;;;;;5108245;28;20190;-56
2022/08/21 07:39:44;;;;;;;;;;;26.30;93.80;;;;;;5107716;28;19912;-54
2022/08/21 07:42:10;;;;;;;;;;;26.30;93.90;;;;;;5108392;28;20096;-54
2022/08/21 07:44:36;;;;;;;;;;;26.30;93.90;;;;;;5107635;28;19908;-56
2022/08/21 07:47:02;;;;;;;;;;;26.30;93.90;;;;;;5107660;28;19919;-56
2022/08/21 07:49:29;;;;;;;;;;;26.30;93.90;;;;;;5107420;28;19911;-56
2022/08/21 07:51:56;;;;;;;;;;;26.30;93.90;;;;;;5107862;28;19908;-54
2022/08/21 07:54:22;;;;;;;;;;;26.30;93.90;;;;;;5107300;28;19949;-54
2022/08/21 07:56:48;;;;;;;;;;;26.30;93.90;;;;;;5108087;28;19912;-56
2022/08/21 07:59:14;;;;;;;;;;;26.30;93.90;;;;;;5107629;28;19947;-55
2022/08/21 08:01:41;;;;;;;;;;;26.30;93.90;;;;;;5107584;28;19912;-55
2022/08/21 08:04:07;;;;;;;;;;;26.30;94.00;;;;;;5107371;28;20144;-55
2022/08/21 08:06:33;;;;;;;;;;;26.30;94.00;;;;;;5107589;28;19912;-55
2022/08/21 08:09:02;;;;;;;;;;;26.30;94.00;;;;;;5107251;28;19924;-55
2022/08/21 08:11:28;;;;;;;;;;;26.30;93.90;;;;;;5106921;28;20009;-54
2022/08/21 08:13:54;;;;;;;;;;;26.20;94.00;;;;;;5106917;28;19979;-53
2022/08/21 08:16:20;;;;;;;;;;;26.30;94.00;;;;;;5107148;28;19929;-59
2022/08/21 08:18:46;;;;;;;;;;;26.30;94.00;;;;;;5106799;28;19953;-54
2022/08/21 08:21:13;;;;;;;;;;;26.30;94.00;;;;;;5107212;28;19953;-57
2022/08/21 08:23:39;;;;;;;;;;;26.30;94.00;;;;;;5106733;28;19944;-55
2022/08/21 08:26:05;;;;;;;;;;;26.30;94.00;;;;;;5107005;28;19920;-56
2022/08/21 08:28:32;;;;;;;;;;;26.30;94.00;;;;;;5106851;28;19904;-54
2022/08/21 08:30:59;;;;;;;;;;;26.30;94.00;;;;;;5107089;28;19919;-54
2022/08/21 08:33:25;;;;;;;;;;;26.30;94.00;;;;;;5106674;28;20201;-54
2022/08/21 08:35:51;;;;;;;;;;;26.30;94.00;;;;;;5106665;28;19912;-55
2022/08/21 08:38:19;;;;;;;;;;;26.30;94.00;;;;;;5106754;28;19908;-53
2022/08/21 08:41:01;;;;;;;;;;;26.20;94.00;;;;;;5106039;28;20077;-54
2022/08/21 08:43:28;;;;;;;;;;;26.20;94.10;;;;;;5106448;28;19919;-52
2022/08/21 08:45:56;;;;;;;;;;;26.20;94.10;;;;;;5106571;28;19912;-54
2022/08/21 08:48:34;;;;;;;;;;;26.30;94.10;;;;;;5107133;28;19971;-54
2022/08/21 08:51:02;;;;;;;;;;;26.20;94.10;;;;;;5106691;28;20096;-58
2022/08/21 08:53:34;;;;;;;;;;;26.20;94.00;;;;;;5106229;28;19945;-53
2022/08/21 08:56:02;;;;;;;;;;;26.30;94.30;;;;;;5106841;28;20123;-55
2022/08/21 08:58:32;;;;;;;;;;;26.20;94.10;;;;;;5106218;28;19979;-54
2022/08/21 09:00:58;;;;;;;;;;;26.20;94.00;;;;;;5106218;28;20234;-52
2022/08/21 09:03:25;;;;;;;;;;;26.20;94.00;;;;;;5106693;28;19912;-52
2022/08/21 09:06:05;;;;;;;;;;;26.20;94.00;;;;;;5106412;28;19912;-54
2022/08/21 09:08:49;;;;;;;;;;;26.20;94.00;;;;;;5106097;28;19912;-51
2022/08/21 09:11:34;;;;;;;;;;;26.20;94.10;;;;;;5106655;28;19916;-52
2022/08/21 09:14:15;;;;;;;;;;;26.20;94.10;;;;;;5106382;28;20224;-59
2022/08/21 09:16:47;;;;;;;;;;;26.20;94.10;;;;;;5106695;28;19912;-55
2022/08/21 09:19:22;;;;;;;;;;;26.20;94.10;;;;;;5105874;28;19908;-52
2022/08/21 09:21:51;;;;;;;;;;;26.20;94.10;;;;;;5106348;28;19912;-53
2022/08/21 09:24:32;;;;;;;;;;;26.20;94.10;;;;;;5106386;28;19970;-54
2022/08/21 09:27:01;;;;;;;;;;;26.20;94.10;;;;;;5105842;28;19912;-55
2022/08/21 09:29:29;;;;;;;;;;;26.20;94.10;;;;;;5105515;28;20210;-55
2022/08/21 09:31:55;;;;;;;;;;;26.20;94.20;;;;;;5105376;28;19912;-55
2022/08/21 09:34:26;;;;;;;;;;;26.20;94.30;;;;;;5105864;28;19974;-56
2022/08/21 09:36:52;;;;;;;;;;;26.20;94.30;;;;;;5106141;28;19909;-54
2022/08/21 09:39:26;;;;;;;;;;;26.20;94.30;;;;;;5105388;28;19908;-51
2022/08/21 09:41:59;;;;;;;;;;;26.20;94.40;;;;;;5105970;28;19920;-54
2022/08/21 09:44:27;;;;;;;;;;;26.20;94.30;;;;;;5105504;28;19908;-55
2022/08/21 09:46:53;;;;;;;;;;;26.20;94.30;;;;;;5106029;28;19912;-53
2022/08/21 09:49:30;;;;;;;;;;;26.20;94.40;;;;;;5105377;28;19911;-54
2022/08/21 09:51:57;;;;;;;;;;;26.20;94.40;;;;;;5105614;28;19919;-55
2022/08/21 09:54:26;;;;;;;;;;;26.20;94.40;;;;;;5105529;28;19945;-59
2022/08/21 09:59:39;;;;;;;;;;;26.20;94.40;;;;;;5105167;28;19914;-52
2022/08/21 10:02:17;;;;;;;;;;;26.20;94.50;;;;;;5105548;28;20096;-53
2022/08/21 10:04:49;;;;;;;;;;;26.20;94.40;;;;;;5104948;28;20085;-54
2022/08/21 10:07:15;;;;;;;;;;;26.20;94.40;;;;;;5105324;28;19919;-53
2022/08/21 10:09:41;;;;;;;;;;;26.20;94.40;;;;;;5104927;28;19943;-52
2022/08/21 10:12:10;;;;;;;;;;;26.20;94.50;;;;;;5104966;28;20147;-53
2022/08/21 10:14:51;;;;;;;;;;;26.20;94.40;;;;;;5105049;28;20096;-54
2022/08/21 10:17:21;;;;;;;;;;;26.20;94.40;;;;;;5104746;28;19913;-51
2022/08/21 10:20:10;;;;;;;;;;;26.20;94.50;;;;;;5105040;28;19946;-55
2022/08/21 10:22:42;;;;;;;;;;;26.20;94.50;;;;;;5104521;28;20227;-54
2022/08/21 10:25:14;;;;;;;;;;;26.20;94.40;;;;;;5104923;28;19975;-59
2022/08/21 10:27:53;;;;;;;;;;;26.20;94.50;;;;;;5104560;28;19908;-55
2022/08/21 10:30:25;;;;;;;;;;;26.20;94.50;;;;;;5104753;28;19912;-53
2022/08/21 10:33:06;;;;;;;;;;;26.20;94.50;;;;;;5104433;28;19988;-53
2022/08/21 10:35:36;;;;;;;;;;;26.10;94.40;;;;;;5104952;28;19979;-54
2022/08/21 10:38:21;;;;;;;;;;;26.10;94.40;;;;;;5105001;28;19950;-55
2022/08/21 10:41:02;;;;;;;;;;;26.10;94.40;;;;;;5104877;28;19920;-53
2022/08/21 10:43:35;;;;;;;;;;;26.10;94.30;;;;;;5104894;28;20142;-57
2022/08/21 10:46:17;;;;;;;;;;;26.10;94.30;;;;;;5104478;28;19916;-53
2022/08/21 10:48:44;;;;;;;;;;;26.10;94.30;;;;;;5104488;28;19946;-54
2022/08/21 10:51:16;;;;;;;;;;;26.10;94.30;;;;;;5104570;28;19919;-53
2022/08/21 10:53:58;;;;;;;;;;;26.10;94.30;;;;;;5104685;28;19904;-52
2022/08/21 10:56:29;;;;;;;;;;;26.10;94.40;;;;;;5104562;28;19916;-54
2022/08/21 10:59:02;;;;;;;;;;;26.10;94.40;;;;;;5104688;28;19954;-53
2022/08/21 11:01:42;;;;;;;;;;;26.10;94.40;;;;;;5104349;28;19944;-56
2022/08/21 11:04:13;;;;;;;;;;;26.00;94.40;;;;;;5106786;28;20112;-54
2022/08/21 11:06:42;;;;;;;;;;;26.00;94.50;;;;;;5108677;28;19926;-53
2022/08/21 11:09:13;;;;;;;;;;;26.00;94.50;;;;;;5108291;28;19908;-52
2022/08/21 11:11:42;;;;;;;;;;;26.00;94.50;;;;;;5108581;28;19928;-57
2022/08/21 11:14:21;;;;;;;;;;;26.00;94.50;;;;;;5108368;28;19950;-53
2022/08/21 11:17:00;;;;;;;;;;;26.00;94.40;;;;;;5108757;28;19916;-55
2022/08/21 11:19:38;;;;;;;;;;;26.00;94.50;;;;;;5108045;28;19939;-57
2022/08/21 11:22:10;;;;;;;;;;;26.00;94.50;;;;;;5108393;28;19970;-55
2022/08/21 11:24:55;;;;;;;;;;;26.00;94.50;;;;;;5108130;28;20281;-56
2022/08/21 11:27:32;;;;;;;;;;;26.00;94.40;;;;;;5108032;28;19991;-55
2022/08/21 11:29:59;;;;;;;;;;;26.00;94.40;;;;;;5108027;28;19955;-55
2022/08/21 11:32:44;;;;;;;;;;;26.10;94.40;;;;;;5103654;28;19953;-58
2022/08/21 11:35:28;;;;;;;;;;;26.10;94.40;;;;;;5107949;28;19912;-54
2022/08/21 11:38:01;;;;;;;;;;;26.00;94.30;;;;;;5107926;28;20073;-56
2022/08/21 11:40:34;;;;;;;;;;;26.00;94.40;;;;;;5095944;28;19912;-51
2022/08/21 11:43:03;;;;;;;;;;;26.00;94.40;;;;;;5087414;28;19912;-55
2022/08/21 11:45:50;;;;;;;;;;;26.00;94.40;;;;;;5087540;28;19920;-53
2022/08/21 11:48:37;;;;;;;;;;;26.00;94.40;;;;;;5097136;28;19908;-56
2022/08/21 11:51:10;;;;;;;;;;;26.10;94.50;;;;;;5107323;28;19912;-54
2022/08/21 11:53:51;;;;;;;;;;;26.10;94.50;;;;;;5107795;28;20159;-53
2022/08/21 11:56:24;;;;;;;;;;;26.10;94.70;;;;;;5107663;28;19920;-58
2022/08/21 11:58:57;;;;;;;;;;;26.10;94.50;;;;;;5107226;28;19915;-55
2022/08/21 12:01:28;;;;;;;;;;;26.10;94.60;;;;;;5100652;28;19912;-54
2022/08/21 12:03:54;;;;;;;;;;;26.10;94.70;;;;;;5086839;28;20147;-56
2022/08/21 12:06:28;;;;;;;;;;;26.10;94.60;;;;;;5087448;28;19935;-56
2022/08/21 12:09:03;;;;;;;;;;;26.10;94.70;;;;;;5086710;28;20101;-56
2022/08/21 12:11:29;;;;;;;;;;;26.10;94.60;;;;;;5086772;28;19955;-54
2022/08/21 12:14:15;;;;;;;;;;;26.10;94.60;;;;;;5088877;28;19915;-54
2022/08/21 12:16:45;;;;;;;;;;;26.10;94.50;;;;;;5106899;28;20246;-53
2022/08/21 12:19:29;;;;;;;;;;;26.10;94.50;;;;;;5106839;28;19929;-56
2022/08/21 12:21:56;;;;;;;;;;;26.10;94.50;;;;;;5107451;28;19919;-55
2022/08/21 12:24:28;;;;;;;;;;;26.10;94.50;;;;;;5106762;28;19908;-52
2022/08/21 12:26:55;;;;;;;;;;;26.20;94.50;;;;;;5107221;28;19912;-54
2022/08/21 12:29:29;;;;;;;;;;;26.10;94.50;;;;;;5107011;28;19948;-55
2022/08/21 12:31:58;;;;;;;;;;;26.20;94.50;;;;;;5107108;28;20115;-55
2022/08/21 12:34:48;;;;;;;;;;;26.20;94.50;;;;;;5106563;28;19911;-56
2022/08/21 12:37:17;;;;;;;;;;;26.20;94.50;;;;;;5069037;28;19916;-53
2022/08/21 12:39:44;;;;;;;;;;;26.20;94.40;;;;;;5107055;28;20183;-60
2022/08/21 12:42:20;;;;;;;;;;;26.20;94.40;;;;;;5106906;28;19954;-55
2022/08/21 12:44:50;;;;;;;;;;;26.20;94.40;;;;;;5088304;28;19915;-56
2022/08/21 12:47:29;;;;;;;;;;;26.20;94.50;;;;;;5105608;28;20168;-60
2022/08/21 12:50:02;;;;;;;;;;;26.20;94.40;;;;;;5085897;28;19912;-57
2022/08/21 12:52:31;;;;;;;;;;;26.20;94.40;;;;;;5086068;28;19975;-57
2022/08/21 12:54:58;;;;;;;;;;;26.20;94.40;;;;;;5086102;28;19908;-54
2022/08/21 12:57:25;;;;;;;;;;;26.20;94.50;;;;;;5085790;28;19912;-54
2022/08/21 12:59:53;;;;;;;;;;;26.20;94.50;;;;;;5085751;28;19909;-57
2022/08/21 13:02:21;;;;;;;;;;;26.20;94.50;;;;;;5104868;28;19912;-55
2022/08/21 13:04:47;;;;;;;;;;;26.20;94.50;;;;;;5106024;28;19908;-53
2022/08/21 13:07:16;;;;;;;;;;;26.20;94.50;;;;;;5089681;28;19944;-57
2022/08/21 13:09:53;;;;;;;;;;;26.20;94.60;;;;;;5094493;28;19913;-59
2022/08/21 13:12:21;;;;;;;;;;;26.20;94.60;;;;;;5085500;28;19943;-59
2022/08/21 13:14:48;;;;;;;;;;;26.20;94.60;;;;;;5085499;28;19987;-59
2022/08/21 13:17:17;;;;;;;;;;;26.20;94.60;;;;;;5085332;28;19940;-61
2022/08/21 13:19:53;;;;;;;;;;;26.20;95.10;;;;;;5085441;28;19931;-60
2022/08/21 13:22:19;;;;;;;;;;;26.20;94.90;;;;;;5085258;28;20266;-55
2022/08/21 13:24:46;;;;;;;;;;;26.20;94.80;;;;;;5085225;28;19939;-61
2022/08/21 13:27:29;;;;;;;;;;;26.20;94.70;;;;;;5084972;28;20192;-59
2022/08/21 13:30:19;;;;;;;;;;;26.20;94.90;;;;;;5085041;28;20216;-53
2022/08/21 13:32:49;;;;;;;;;;;26.20;95.00;;;;;;5067423;28;19991;-58
2022/08/21 13:35:19;;;;;;;;;;;26.10;94.70;;;;;;5085158;28;19916;-60
2022/08/21 13:37:46;;;;;;;;;;;26.10;94.70;;;;;;5085172;28;19948;-58
2022/08/21 13:40:14;;;;;;;;;;;26.20;94.90;;;;;;5084992;28;19923;-63
2022/08/21 13:42:41;;;;;;;;;;;26.20;95.00;;;;;;5084715;28;19913;-58
2022/08/21 13:45:19;;;;;;;;;;;26.20;94.80;;;;;;5084909;28;19959;-58
2022/08/21 13:47:47;;;;;;;;;;;26.30;94.90;;;;;;5067173;28;19951;-55
2022/08/21 13:50:15;;;;;;;;;;;26.30;94.90;;;;;;5085119;28;19908;-55
2022/08/21 13:52:49;;;;;;;;;;;26.30;94.90;;;;;;5084875;28;19940;-58
2022/08/21 13:55:17;;;;;;;;;;;26.40;94.90;;;;;;5085611;28;19919;-55
2022/08/21 13:57:43;;;;;;;;;;;26.40;94.80;;;;;;5085479;28;19908;-57
2022/08/21 14:00:30;;;;;;;;;;;26.50;94.80;;;;;;5085100;28;19934;-56
2022/08/21 14:03:07;;;;;;;;;;;26.50;94.80;;;;;;5082903;28;19919;-53
2022/08/21 14:05:44;;;;;;;;;;;26.50;94.60;;;;;;5083214;28;19919;-58
2022/08/21 14:08:29;;;;;;;;;;;26.60;94.80;;;;;;5082863;28;19908;-53
2022/08/21 14:10:55;;;;;;;;;;;26.60;94.70;;;;;;5083252;28;19909;-56
2022/08/21 14:13:37;;;;;;;;;;;26.60;94.60;;;;;;5082542;28;19912;-57
2022/08/21 14:16:15;;;;;;;;;;;26.70;94.50;;;;;;5082790;28;20135;-56
2022/08/21 14:18:49;;;;;;;;;;;26.70;94.40;;;;;;5084541;28;19916;-59
2022/08/21 14:21:26;;;;;;;;;;;26.80;94.20;;;;;;5089954;28;19991;-55
2022/08/21 14:24:13;;;;;;;;;;;26.80;93.60;;;;;;5086335;28;19918;-57
2022/08/21 14:26:51;;;;;;;;;;;26.80;93.60;;;;;;5104805;28;19915;-53
2022/08/21 14:29:18;;;;;;;;;;;26.80;93.70;;;;;;5104741;28;20275;-56
2022/08/21 14:31:49;;;;;;;;;;;26.80;93.30;;;;;;5104958;28;19940;-57